createdAt,value
2023-02-04T00:02:18.710Z,51.13
2023-02-04T00:04:50.621Z,61.30
2023-02-04T00:07:22.527Z,55.90
2023-02-04T00:09:54.413Z,54.72
2023-02-04T00:12:26.336Z,45.25
2023-02-04T00:14:58.276Z,47.05
2023-02-04T00:17:30.240Z,48.08
2023-02-04T00:20:02.132Z,46.63
2023-02-04T00:22:33.972Z,52.60
2023-02-04T00:25:07.301Z,50.55
2023-02-04T00:27:39.210Z,54.75
2023-02-04T00:30:11.905Z,52.75
2023-02-04T00:32:45.745Z,47.67
2023-02-04T00:35:17.596Z,49.42
2023-02-04T00:37:50.750Z,58.03
2023-02-04T00:40:22.887Z,55.20
2023-02-04T00:42:54.773Z,57.50
2023-02-04T00:45:26.605Z,59.30
2023-02-04T00:47:58.560Z,61.08
2023-02-04T00:50:30.648Z,62.85
2023-02-04T00:53:02.613Z,58.55
2023-02-04T00:55:35.101Z,53.63
2023-02-04T00:58:07.125Z,51.58
2023-02-04T01:00:39.035Z,50.13
2023-02-04T01:03:12.283Z,50.00
2023-02-04T01:05:44.241Z,45.60
2023-02-04T01:08:17.164Z,52.03
2023-02-04T01:10:49.168Z,49.00
2023-02-04T01:13:21.019Z,57.55
2023-02-04T01:15:52.861Z,62.60
2023-02-04T01:18:24.781Z,52.83
2023-02-04T01:20:56.584Z,58.50
2023-02-04T01:23:28.533Z,57.70
2023-02-04T01:26:00.410Z,66.00
2023-02-04T01:28:32.329Z,67.50
2023-02-04T01:31:04.293Z,59.50
2023-02-04T01:33:36.190Z,63.65
2023-02-04T01:36:08.920Z,60.65
2023-02-04T01:38:40.759Z,59.88
2023-02-04T01:41:12.611Z,61.17
2023-02-04T01:43:45.641Z,56.42
2023-02-04T01:46:17.814Z,59.65
2023-02-04T01:48:51.543Z,58.35
2023-02-04T01:51:31.954Z,56.33
2023-02-04T01:54:04.143Z,64.32
2023-02-04T01:56:36.946Z,64.40
2023-02-04T01:59:14.426Z,63.35
2023-02-04T02:01:48.992Z,67.20
2023-02-04T02:04:33.557Z,68.70
2023-02-04T02:07:07.257Z,70.40
2023-02-04T02:09:39.175Z,66.07
2023-02-04T02:12:11.601Z,66.15
2023-02-04T02:14:43.408Z,67.38
2023-02-04T02:17:15.268Z,70.40
2023-02-04T02:19:47.164Z,70.38
2023-02-04T02:22:54.657Z,70.90
2023-02-04T02:25:26.505Z,69.35
2023-02-04T02:28:00.438Z,70.93
2023-02-04T02:30:32.924Z,74.65
2023-02-04T02:33:06.322Z,62.25
2023-02-04T02:35:38.298Z,71.07
2023-02-04T02:38:13.139Z,71.10
2023-02-04T02:40:47.895Z,72.72
2023-02-04T02:43:25.735Z,72.00
2023-02-04T02:46:00.139Z,65.90
2023-02-04T02:48:32.203Z,73.45
2023-02-04T02:51:04.492Z,78.00
2023-02-04T02:53:36.805Z,68.63
2023-02-04T02:56:09.903Z,75.93
2023-02-04T02:58:42.169Z,75.53
2023-02-04T03:01:14.479Z,70.35
2023-02-04T03:03:49.962Z,73.88
2023-02-04T03:06:26.002Z,73.22
2023-02-04T03:08:58.298Z,74.85
2023-02-04T03:11:30.317Z,74.65
2023-02-04T03:14:03.084Z,74.45
2023-02-04T03:16:37.971Z,79.65
2023-02-04T03:19:10.681Z,79.18
2023-02-04T03:21:43.220Z,76.22
2023-02-04T03:24:15.094Z,77.43
2023-02-04T03:26:47.035Z,75.35
2023-02-04T03:29:19.056Z,76.82
2023-02-04T03:31:51.098Z,74.53
2023-02-04T03:34:23.388Z,85.88
2023-02-04T03:36:55.281Z,74.55
2023-02-04T03:39:27.128Z,75.70
2023-02-04T03:41:59.403Z,78.07
2023-02-04T03:44:31.222Z,75.35
2023-02-04T03:47:03.085Z,77.63
2023-02-04T03:49:36.155Z,79.63
2023-02-04T03:52:08.021Z,80.63
2023-02-04T03:54:39.910Z,78.72
2023-02-04T03:57:11.957Z,80.32
2023-02-04T03:59:44.224Z,73.53
2023-02-04T04:02:16.103Z,78.50
2023-02-04T04:04:48.013Z,69.18
2023-02-04T04:07:25.997Z,83.25
2023-02-04T04:09:57.877Z,71.75
2023-02-04T04:12:29.721Z,82.57
2023-02-04T04:15:01.660Z,81.50
2023-02-04T04:17:34.203Z,77.80
2023-02-04T04:20:06.493Z,78.30
2023-02-04T04:22:38.674Z,78.15
2023-02-04T04:25:10.512Z,83.00
2023-02-04T04:27:42.358Z,81.20
2023-02-04T04:30:14.248Z,77.95
2023-02-04T04:32:46.243Z,75.25
2023-02-04T04:35:18.093Z,72.18
2023-02-04T04:37:49.999Z,72.88
2023-02-04T04:40:21.895Z,76.60
2023-02-04T04:42:54.684Z,76.30
2023-02-04T04:45:26.752Z,80.55
2023-02-04T04:47:58.748Z,73.45
2023-02-04T04:50:30.994Z,72.68
2023-02-04T04:53:03.093Z,78.88
2023-02-04T04:55:34.962Z,71.70
2023-02-04T04:58:08.283Z,78.78
2023-02-04T05:00:40.204Z,85.07
2023-02-04T05:03:12.094Z,72.18
2023-02-04T05:05:44.385Z,78.15
2023-02-04T05:08:17.055Z,71.70
2023-02-04T05:10:49.038Z,75.47
2023-02-04T05:13:20.956Z,72.05
2023-02-04T05:15:52.805Z,76.90
2023-02-04T05:18:24.775Z,73.70
2023-02-04T05:20:56.570Z,77.22
2023-02-04T05:23:28.522Z,74.28
2023-02-04T05:26:00.677Z,77.70
2023-02-04T05:28:32.580Z,71.30
2023-02-04T05:31:04.598Z,76.20
2023-02-04T05:33:36.636Z,74.05
2023-02-04T05:36:08.450Z,78.18
2023-02-04T05:38:40.349Z,78.35
2023-02-04T05:41:12.704Z,89.53
2023-02-04T05:43:44.600Z,80.88
2023-02-04T05:46:16.460Z,82.25
2023-02-04T05:48:48.260Z,83.60
2023-02-04T05:51:20.151Z,86.82
2023-02-04T05:53:52.036Z,81.53
2023-02-04T05:56:25.326Z,75.55
2023-02-04T05:58:57.174Z,88.55
2023-02-04T06:01:29.080Z,89.85
2023-02-04T06:04:00.924Z,82.25
2023-02-04T06:06:32.970Z,95.95
2023-02-04T06:09:04.972Z,95.07
2023-02-04T06:11:36.976Z,89.25
2023-02-04T06:14:09.008Z,102.72
2023-02-04T06:16:41.004Z,98.60
2023-02-04T06:19:14.095Z,92.30
2023-02-04T06:21:45.919Z,86.50
2023-02-04T06:24:17.836Z,86.95
2023-02-04T06:26:50.206Z,92.93
2023-02-04T06:29:22.181Z,89.88
2023-02-04T06:31:54.180Z,96.15
2023-02-04T06:34:26.102Z,90.25
2023-02-04T06:36:57.944Z,99.70
2023-02-04T06:39:29.786Z,94.65
2023-02-04T06:42:02.414Z,118.82
2023-02-04T06:44:34.308Z,95.90
2023-02-04T06:47:06.136Z,100.30
2023-02-04T06:49:38.220Z,102.93
2023-02-04T06:52:10.229Z,108.50
2023-02-04T06:54:42.151Z,95.05
2023-02-04T06:57:14.007Z,98.25
2023-02-04T06:59:47.208Z,97.97
2023-02-04T07:02:19.184Z,103.05
2023-02-04T07:04:51.092Z,105.13
2023-02-04T07:07:23.100Z,99.82
2023-02-04T07:09:54.931Z,130.88
2023-02-04T07:12:27.019Z,110.30
2023-02-04T07:14:58.852Z,125.47
2023-02-04T07:17:30.777Z,125.00
2023-02-04T07:20:02.710Z,91.38
2023-02-04T07:22:34.581Z,91.40
2023-02-04T07:25:07.038Z,88.03
2023-02-04T07:27:38.928Z,90.22
2023-02-04T07:30:11.647Z,92.95
2023-02-04T07:32:43.686Z,88.30
2023-02-04T07:35:15.708Z,132.80
2023-02-04T07:37:47.529Z,142.63
2023-02-04T07:40:22.723Z,93.50
2023-02-04T07:42:54.608Z,100.13
2023-02-04T07:45:28.242Z,98.07
2023-02-04T07:48:05.935Z,98.80
2023-02-04T07:50:37.909Z,91.18
2023-02-04T07:53:09.792Z,98.95
2023-02-04T07:55:41.614Z,94.30
2023-02-04T07:58:13.581Z,102.35
2023-02-04T08:00:45.565Z,90.45
2023-02-04T08:03:18.115Z,102.97
2023-02-04T08:05:50.313Z,108.88
2023-02-04T08:08:22.424Z,110.35
2023-02-04T08:10:54.323Z,130.20
2023-02-04T08:13:26.213Z,101.95
2023-02-04T08:15:58.118Z,97.07
2023-02-04T08:18:30.563Z,88.32
2023-02-04T08:21:04.769Z,94.75
2023-02-04T08:23:41.692Z,89.65
2023-02-04T08:26:13.679Z,92.88
2023-02-04T08:28:45.583Z,86.45
2023-02-04T08:31:17.603Z,92.70
2023-02-04T08:33:51.791Z,98.25
2023-02-04T08:36:23.773Z,88.25
2023-02-04T08:38:55.633Z,91.00
2023-02-04T08:41:27.600Z,87.72
2023-02-04T08:44:01.070Z,88.13
2023-02-04T08:46:33.126Z,80.40
2023-02-04T08:49:05.080Z,87.25
2023-02-04T08:51:37.005Z,85.97
2023-02-04T08:54:10.026Z,90.68
2023-02-04T08:56:41.945Z,93.72
2023-02-04T08:59:13.963Z,86.07
2023-02-04T09:01:51.009Z,93.65
2023-02-04T09:04:24.137Z,87.57
2023-02-04T09:06:56.327Z,90.28
2023-02-04T09:09:28.161Z,85.65
2023-02-04T09:12:01.775Z,89.40
2023-02-04T09:14:33.683Z,91.35
2023-02-04T09:17:05.921Z,96.43
2023-02-04T09:19:37.826Z,94.10
2023-02-04T09:22:09.888Z,90.68
2023-02-04T09:24:42.056Z,93.25
2023-02-04T09:27:14.003Z,92.13
2023-02-04T09:29:45.978Z,93.80
2023-02-04T09:32:17.961Z,97.30
2023-02-04T09:34:50.065Z,101.43
2023-02-04T09:37:22.072Z,103.50
2023-02-04T09:39:54.846Z,105.18
2023-02-04T09:42:27.386Z,114.40
2023-02-04T09:45:01.459Z,109.93
2023-02-04T09:47:33.347Z,108.97
2023-02-04T09:50:05.473Z,106.53
2023-02-04T09:52:37.312Z,109.05
2023-02-04T09:55:21.056Z,112.15
2023-02-04T09:57:52.947Z,110.88
2023-02-04T10:00:27.814Z,107.07
2023-02-04T10:03:02.612Z,110.80
2023-02-04T10:05:37.248Z,118.72
2023-02-04T10:08:24.837Z,113.68
2023-02-04T10:10:58.125Z,110.53
2023-02-04T10:13:40.330Z,112.22
2023-02-04T10:16:21.511Z,112.82
2023-02-04T10:18:53.380Z,113.88
2023-02-04T10:21:28.714Z,107.88
2023-02-04T10:24:10.289Z,104.22
2023-02-04T10:26:42.562Z,105.80
2023-02-04T10:29:30.559Z,110.47
2023-02-04T10:32:02.591Z,102.20
2023-02-04T10:34:39.645Z,111.95
2023-02-04T10:37:20.661Z,109.22
2023-02-04T10:39:52.642Z,109.80
2023-02-04T10:42:29.854Z,108.53
2023-02-04T10:45:01.917Z,114.25
2023-02-04T10:47:37.264Z,110.75
2023-02-04T10:50:27.212Z,109.57
2023-02-04T10:53:19.175Z,109.63
2023-02-04T10:55:53.389Z,106.68
2023-02-04T10:58:28.636Z,108.43
2023-02-04T11:01:01.144Z,113.95
2023-02-04T11:03:33.084Z,122.72
2023-02-04T11:06:15.917Z,122.95
2023-02-04T11:08:50.173Z,124.47
2023-02-04T11:11:27.312Z,123.68
2023-02-04T11:14:04.295Z,125.97
2023-02-04T11:16:48.980Z,119.65
2023-02-04T11:19:38.778Z,128.38
2023-02-04T11:22:46.627Z,128.77
2023-02-04T11:25:38.165Z,134.40
2023-02-04T11:28:25.491Z,127.25
2023-02-04T11:31:02.476Z,132.90
2023-02-04T11:34:25.352Z,137.13
2023-02-04T11:37:05.969Z,131.68
2023-02-04T11:39:49.717Z,133.67
2023-02-04T11:42:48.385Z,134.25
2023-02-04T11:45:32.303Z,131.18
2023-02-04T11:48:18.532Z,130.05
2023-02-04T11:51:02.098Z,136.70
2023-02-04T11:53:34.917Z,138.25
2023-02-04T11:56:30.156Z,137.80
2023-02-04T11:59:02.126Z,128.18
2023-02-04T12:01:34.717Z,132.35
2023-02-04T12:04:21.136Z,136.75
2023-02-04T12:07:01.901Z,136.70
2023-02-04T12:09:33.968Z,139.95
2023-02-04T12:12:06.596Z,140.70
2023-02-04T12:14:38.981Z,137.98
2023-02-04T12:17:18.976Z,130.63
2023-02-04T12:19:50.876Z,144.18
2023-02-04T12:22:22.793Z,140.43
2023-02-04T12:24:54.749Z,130.80
2023-02-04T12:27:26.661Z,131.30
2023-02-04T12:29:58.657Z,136.85
2023-02-04T12:32:30.605Z,130.02
2023-02-04T12:35:02.678Z,121.32
2023-02-04T12:37:34.605Z,123.53
2023-02-04T12:40:07.993Z,127.28
2023-02-04T12:42:40.165Z,120.75
2023-02-04T12:45:13.948Z,127.35
2023-02-04T12:47:46.426Z,122.03
2023-02-04T12:50:26.243Z,126.82
2023-02-04T12:52:59.557Z,114.93
2023-02-04T12:55:31.913Z,121.38
2023-02-04T12:58:04.688Z,139.73
2023-02-04T13:00:36.671Z,116.43
2023-02-04T13:03:08.729Z,115.35
2023-02-04T13:05:40.957Z,120.38
2023-02-04T13:08:12.956Z,115.93
2023-02-04T13:10:51.974Z,121.90
2023-02-04T13:13:24.225Z,127.00
2023-02-04T13:15:56.330Z,116.15
2023-02-04T13:18:28.760Z,119.13
2023-02-04T13:21:00.713Z,113.88
2023-02-04T13:23:32.779Z,113.80
2023-02-04T13:26:04.779Z,115.68
2023-02-04T13:28:37.036Z,115.70
2023-02-04T13:31:08.995Z,115.00
2023-02-04T13:33:40.919Z,109.05
2023-02-04T13:36:14.300Z,116.80
2023-02-04T13:38:46.735Z,112.68
2023-02-04T13:41:18.673Z,111.47
2023-02-04T13:43:50.996Z,110.40
2023-02-04T13:46:22.962Z,109.65
2023-02-04T13:48:54.880Z,117.88
2023-02-04T13:51:27.028Z,109.93
2023-02-04T13:54:00.418Z,117.13
2023-02-04T13:56:38.476Z,109.78
2023-02-04T13:59:13.190Z,112.68
2023-02-04T14:01:45.198Z,109.03
2023-02-04T14:04:17.079Z,104.53
2023-02-04T14:06:49.028Z,105.68
2023-02-04T14:09:21.764Z,107.47
2023-02-04T14:11:53.639Z,102.85
2023-02-04T14:14:25.584Z,102.63
2023-02-04T14:16:57.498Z,107.25
2023-02-04T14:19:29.390Z,110.68
2023-02-04T14:22:01.648Z,108.80
2023-02-04T14:24:34.301Z,102.72
2023-02-04T14:27:07.781Z,103.13
2023-02-04T14:29:39.835Z,108.72
2023-02-04T14:32:11.713Z,109.88
2023-02-04T14:34:43.634Z,111.07
2023-02-04T14:37:15.525Z,99.75
2023-02-04T14:39:47.413Z,104.07
2023-02-04T14:42:19.308Z,105.43
2023-02-04T14:44:51.124Z,108.70
2023-02-04T14:47:23.314Z,103.80
2023-02-04T14:49:58.232Z,101.63
2023-02-04T14:52:30.180Z,96.50
2023-02-04T14:55:02.050Z,92.63
2023-02-04T14:57:33.919Z,93.80
2023-02-04T15:00:09.810Z,90.97
2023-02-04T15:02:42.751Z,93.88
2023-02-04T15:05:15.344Z,93.45
2023-02-04T15:07:47.286Z,95.47
2023-02-04T15:10:19.156Z,98.28
2023-02-04T15:12:51.823Z,99.72
2023-02-04T15:15:23.740Z,101.65
2023-02-04T15:17:55.605Z,103.72
2023-02-04T15:20:27.522Z,113.93
2023-02-04T15:23:00.884Z,115.03
2023-02-04T15:25:36.151Z,118.53
2023-02-04T15:28:09.770Z,126.93
2023-02-04T15:30:43.699Z,130.27
2023-02-04T15:33:16.803Z,128.93
2023-02-04T15:35:56.662Z,126.47
2023-02-04T15:38:28.522Z,137.30
2023-02-04T15:41:04.802Z,130.60
2023-02-04T15:43:36.934Z,134.95
2023-02-04T15:46:08.885Z,132.32
2023-02-04T15:48:40.899Z,140.75
2023-02-04T15:51:12.887Z,133.93
2023-02-04T15:53:44.789Z,139.90
2023-02-04T15:56:16.650Z,144.02
2023-02-04T15:58:48.632Z,143.05
2023-02-04T16:01:20.607Z,140.80
2023-02-04T16:03:56.428Z,140.63
2023-02-04T16:06:28.422Z,146.20
2023-02-04T16:09:00.419Z,146.65
2023-02-04T16:11:33.163Z,154.30
2023-02-04T16:14:04.966Z,144.98
2023-02-04T16:16:37.095Z,149.35
2023-02-04T16:19:09.462Z,148.35
2023-02-04T16:21:41.348Z,150.70
2023-02-04T16:24:13.234Z,142.05
2023-02-04T16:26:45.839Z,174.18
2023-02-04T16:29:17.704Z,161.63
2023-02-04T16:31:49.703Z,157.57
2023-02-04T16:34:21.641Z,161.45
2023-02-04T16:36:53.500Z,158.73
2023-02-04T16:39:25.450Z,151.48
2023-02-04T16:41:57.292Z,157.90
2023-02-04T16:44:29.842Z,150.15
2023-02-04T16:47:01.837Z,167.98
2023-02-04T16:49:34.616Z,169.98
2023-02-04T16:52:06.958Z,173.40
2023-02-04T16:54:38.847Z,174.98
2023-02-04T16:57:12.182Z,169.60
2023-02-04T16:59:44.220Z,153.35
2023-02-04T17:02:16.228Z,156.02
2023-02-04T17:04:48.435Z,157.95
2023-02-04T17:07:20.864Z,183.77
2023-02-04T17:09:54.781Z,175.40
2023-02-04T17:12:26.888Z,182.20
2023-02-04T17:14:58.880Z,176.55
2023-02-04T17:17:30.796Z,175.23
2023-02-04T17:20:02.740Z,176.85
2023-02-04T17:22:35.042Z,177.85
2023-02-04T17:25:07.253Z,169.32
2023-02-04T17:27:57.990Z,182.27
2023-02-04T17:30:30.662Z,179.48
2023-02-04T17:33:02.776Z,155.38
2023-02-04T17:35:35.060Z,128.80
2023-02-04T17:38:07.129Z,106.28
2023-02-04T17:40:39.193Z,85.25
2023-02-04T17:43:11.348Z,66.10
2023-02-04T17:45:43.360Z,65.25
2023-02-04T17:48:15.504Z,69.15
2023-02-04T17:50:47.518Z,71.28
2023-02-04T17:53:20.283Z,64.78
2023-02-04T17:55:52.322Z,65.40
2023-02-04T17:58:27.254Z,58.60
2023-02-04T18:00:59.695Z,62.67
2023-02-04T18:03:32.582Z,65.00
2023-02-04T18:06:28.987Z,61.42
2023-02-04T18:09:05.063Z,70.05
2023-02-04T18:11:39.347Z,63.78
2023-02-04T18:14:27.717Z,61.97
2023-02-04T18:17:00.774Z,61.13
2023-02-04T18:19:37.214Z,58.63
2023-02-04T18:22:16.712Z,75.97
2023-02-04T18:24:49.317Z,60.38
2023-02-04T18:27:24.683Z,54.00
2023-02-04T18:29:59.131Z,57.20
2023-02-04T18:32:39.161Z,58.65
2023-02-04T18:35:23.190Z,54.50
2023-02-04T18:37:55.001Z,49.53
2023-02-04T18:40:30.625Z,47.03
2023-02-04T18:43:21.579Z,46.55
2023-02-04T18:45:54.439Z,43.70
2023-02-04T18:48:26.319Z,48.03
2023-02-04T18:50:59.313Z,41.92
2023-02-04T18:53:31.214Z,39.28
2023-02-04T18:56:12.745Z,39.42
2023-02-04T19:01:27.881Z,39.20
2023-02-04T19:04:03.360Z,42.45
2023-02-04T19:06:40.797Z,37.50
2023-02-04T19:09:13.319Z,38.03
2023-02-04T19:11:56.953Z,39.75
2023-02-04T19:14:35.150Z,35.17
2023-02-04T19:17:26.148Z,38.33
2023-02-04T19:19:59.231Z,40.80
2023-02-04T19:22:49.731Z,47.95
2023-02-04T19:25:29.498Z,50.90
2023-02-04T19:28:11.813Z,37.42
2023-02-04T19:30:50.930Z,39.30
2023-02-04T19:33:28.011Z,40.40
2023-02-04T19:36:13.040Z,41.97
2023-02-04T19:38:48.014Z,35.38
2023-02-04T19:41:48.934Z,39.97
2023-02-04T19:44:35.904Z,40.40
2023-02-04T19:47:36.462Z,47.25
2023-02-04T19:50:14.372Z,41.97
2023-02-04T19:52:54.628Z,42.10
2023-02-04T19:55:31.191Z,46.47
2023-02-04T19:58:13.771Z,47.70
2023-02-04T20:00:54.657Z,43.92
2023-02-04T20:03:42.342Z,45.42
2023-02-04T20:06:32.943Z,45.42
2023-02-04T20:09:14.253Z,43.35
2023-02-04T20:12:05.841Z,49.60
2023-02-04T20:14:47.098Z,80.60
2023-02-04T20:17:39.177Z,53.13
2023-02-04T20:20:26.735Z,51.97
2023-02-04T20:23:02.506Z,51.20
2023-02-04T20:25:45.037Z,48.28
2023-02-04T20:28:23.190Z,50.95
2023-02-04T20:30:57.980Z,48.28
2023-02-04T20:33:41.737Z,48.33
2023-02-04T20:36:33.083Z,50.75
2023-02-04T20:39:23.644Z,48.00
2023-02-04T20:42:17.936Z,43.20
2023-02-04T20:44:50.088Z,54.67
2023-02-04T20:47:23.205Z,52.00
2023-02-04T20:49:57.611Z,48.47
2023-02-04T20:52:43.634Z,44.85
2023-02-04T20:55:31.776Z,43.17
2023-02-04T20:58:26.921Z,46.53
2023-02-04T21:00:58.783Z,45.10
2023-02-04T21:03:37.434Z,44.65
2023-02-04T21:06:31.601Z,49.45
2023-02-04T21:09:06.462Z,44.17
2023-02-04T21:11:38.329Z,43.50
2023-02-04T21:14:10.156Z,41.58
2023-02-04T21:16:42.111Z,45.30
2023-02-04T21:19:14.321Z,41.83
2023-02-04T21:21:46.323Z,38.83
2023-02-04T21:24:18.694Z,41.28
2023-02-04T21:26:50.562Z,45.00
2023-02-04T21:29:22.519Z,44.75
2023-02-04T21:31:54.745Z,38.75
2023-02-04T21:34:26.869Z,41.53
2023-02-04T21:36:58.841Z,37.50
2023-02-04T21:39:30.808Z,44.80
2023-02-04T21:42:11.484Z,39.67
2023-02-04T21:44:43.348Z,41.93
2023-02-04T21:47:17.244Z,39.85
2023-02-04T21:49:49.049Z,36.45
2023-02-04T21:52:20.963Z,40.90
2023-02-04T21:54:52.795Z,35.28
2023-02-04T21:57:24.670Z,34.92
2023-02-04T21:59:56.737Z,33.95
2023-02-04T22:02:28.615Z,36.03
2023-02-04T22:05:00.590Z,38.53
2023-02-04T22:07:32.871Z,39.75
2023-02-04T22:10:07.016Z,34.15
2023-02-04T22:12:38.933Z,34.58
2023-02-04T22:15:10.826Z,34.88
2023-02-04T22:17:42.903Z,37.40
2023-02-04T22:20:15.720Z,35.83
2023-02-04T22:22:48.864Z,36.78
2023-02-04T22:25:21.470Z,34.00
2023-02-04T22:27:53.402Z,34.35
2023-02-04T22:30:25.356Z,33.13
2023-02-04T22:33:00.141Z,34.13
2023-02-04T22:35:35.305Z,32.97
2023-02-04T22:38:07.386Z,34.90
2023-02-04T22:40:39.256Z,36.58
2023-02-04T22:43:11.127Z,35.97
2023-02-04T22:45:42.955Z,38.10
2023-02-04T22:48:14.960Z,33.80
2023-02-04T22:50:46.792Z,37.28
2023-02-04T22:53:18.653Z,33.78
2023-02-04T22:55:50.456Z,32.25
2023-02-04T22:58:22.442Z,36.53
2023-02-04T23:00:54.377Z,37.65
2023-02-04T23:03:26.245Z,37.67
2023-02-04T23:05:58.072Z,33.95
2023-02-04T23:08:29.902Z,34.67
2023-02-04T23:11:01.959Z,32.97
2023-02-04T23:13:34.035Z,33.45
2023-02-04T23:16:06.375Z,28.55
2023-02-04T23:18:38.213Z,36.25
2023-02-04T23:21:10.338Z,37.10
2023-02-04T23:23:42.614Z,32.83
2023-02-04T23:26:15.114Z,40.25
2023-02-04T23:28:47.077Z,33.72
2023-02-04T23:31:19.191Z,31.40
2023-02-04T23:33:51.095Z,33.17
2023-02-04T23:36:23.023Z,29.70
2023-02-04T23:38:54.867Z,34.80
2023-02-04T23:41:26.710Z,32.13
2023-02-04T23:43:58.532Z,35.33
2023-02-04T23:46:30.438Z,41.22
2023-02-04T23:49:02.319Z,33.85
2023-02-04T23:51:34.347Z,26.20
2023-02-04T23:54:07.208Z,25.33
2023-02-04T23:56:39.234Z,29.65
2023-02-04T23:59:11.200Z,26.85
